sensor_id;sensor_type;location;lat;lon;timestamp;temperature;humidity
24382;DHT22;12502;50.678;7.172;2023-04-25T00:01:37;7.90;99.90
24382;DHT22;12502;50.678;7.172;2023-04-25T00:06:39;7.90;99.90
24382;DHT22;12502;50.678;7.172;2023-04-25T00:11:41;7.90;99.90
24382;DHT22;12502;50.678;7.172;2023-04-25T00:16:42;7.80;99.90
24382;DHT22;12502;50.678;7.172;2023-04-25T00:21:45;7.70;99.90
24382;DHT22;12502;50.678;7.172;2023-04-25T00:26:47;7.70;99.90
24382;DHT22;12502;50.678;7.172;2023-04-25T00:31:49;8.80;99.90
24382;DHT22;12502;50.678;7.172;2023-04-25T00:36:51;7.60;99.90
24382;DHT22;12502;50.678;7.172;2023-04-25T00:41:52;7.40;99.90
24382;DHT22;12502;50.678;7.172;2023-04-25T00:46:55;7.50;99.90
24382;DHT22;12502;50.678;7.172;2023-04-25T00:51:57;7.20;99.90
24382;DHT22;12502;50.678;7.172;2023-04-25T00:56:59;7.30;99.90
24382;DHT22;12502;50.678;7.172;2023-04-25T01:02:02;7.10;99.90
24382;DHT22;12502;50.678;7.172;2023-04-25T01:07:04;7.10;99.90
24382;DHT22;12502;50.678;7.172;2023-04-25T01:12:06;6.90;99.90
24382;DHT22;12502;50.678;7.172;2023-04-25T01:17:08;6.90;99.90
24382;DHT22;12502;50.678;7.172;2023-04-25T01:22:10;6.90;99.90
24382;DHT22;12502;50.678;7.172;2023-04-25T01:27:12;6.80;99.90
24382;DHT22;12502;50.678;7.172;2023-04-25T01:32:13;6.70;99.90
24382;DHT22;12502;50.678;7.172;2023-04-25T01:37:16;6.50;99.90
24382;DHT22;12502;50.678;7.172;2023-04-25T01:42:18;6.40;99.90
24382;DHT22;12502;50.678;7.172;2023-04-25T01:47:19;6.40;99.90
24382;DHT22;12502;50.678;7.172;2023-04-25T01:52:21;6.30;99.90
24382;DHT22;12502;50.678;7.172;2023-04-25T01:57:23;6.70;99.90
24382;DHT22;12502;50.678;7.172;2023-04-25T02:02:24;6.00;99.90
24382;DHT22;12502;50.678;7.172;2023-04-25T02:07:27;6.70;99.90
24382;DHT22;12502;50.678;7.172;2023-04-25T02:12:29;6.10;99.90
24382;DHT22;12502;50.678;7.172;2023-04-25T02:17:32;5.80;99.90
24382;DHT22;12502;50.678;7.172;2023-04-25T02:22:34;5.80;99.90
24382;DHT22;12502;50.678;7.172;2023-04-25T02:27:37;5.80;99.90
24382;DHT22;12502;50.678;7.172;2023-04-25T02:32:39;5.80;99.90
24382;DHT22;12502;50.678;7.172;2023-04-25T02:37:41;5.80;99.90
24382;DHT22;12502;50.678;7.172;2023-04-25T02:42:43;5.90;99.90
24382;DHT22;12502;50.678;7.172;2023-04-25T02:47:48;5.80;99.90
24382;DHT22;12502;50.678;7.172;2023-04-25T02:52:49;5.80;99.90
24382;DHT22;12502;50.678;7.172;2023-04-25T02:57:51;5.80;99.90
24382;DHT22;12502;50.678;7.172;2023-04-25T03:02:53;5.80;99.90
24382;DHT22;12502;50.678;7.172;2023-04-25T03:07:55;5.80;99.90
24382;DHT22;12502;50.678;7.172;2023-04-25T03:12:57;5.80;99.90
24382;DHT22;12502;50.678;7.172;2023-04-25T03:17:59;5.70;99.90
24382;DHT22;12502;50.678;7.172;2023-04-25T03:23:01;5.80;99.90
24382;DHT22;12502;50.678;7.172;2023-04-25T03:28:02;5.80;99.90
24382;DHT22;12502;50.678;7.172;2023-04-25T03:33:04;5.80;99.90
24382;DHT22;12502;50.678;7.172;2023-04-25T03:38:06;5.70;99.90
24382;DHT22;12502;50.678;7.172;2023-04-25T03:43:09;5.70;99.90
24382;DHT22;12502;50.678;7.172;2023-04-25T03:48:11;5.70;99.90
24382;DHT22;12502;50.678;7.172;2023-04-25T03:53:13;5.60;99.90
24382;DHT22;12502;50.678;7.172;2023-04-25T03:58:14;5.60;99.90
24382;DHT22;12502;50.678;7.172;2023-04-25T04:03:16;5.60;99.90
24382;DHT22;12502;50.678;7.172;2023-04-25T04:08:18;5.70;99.90
24382;DHT22;12502;50.678;7.172;2023-04-25T04:13:20;5.70;99.90
24382;DHT22;12502;50.678;7.172;2023-04-25T04:18:21;5.90;99.90
24382;DHT22;12502;50.678;7.172;2023-04-25T04:23:23;6.00;99.90
24382;DHT22;12502;50.678;7.172;2023-04-25T04:28:25;6.00;99.90
24382;DHT22;12502;50.678;7.172;2023-04-25T04:33:30;6.00;99.90
24382;DHT22;12502;50.678;7.172;2023-04-25T04:38:32;6.10;99.90
24382;DHT22;12502;50.678;7.172;2023-04-25T04:43:34;6.10;99.90
24382;DHT22;12502;50.678;7.172;2023-04-25T04:48:35;6.10;99.90
24382;DHT22;12502;50.678;7.172;2023-04-25T04:59:41;6.20;99.90
24382;DHT22;12502;50.678;7.172;2023-04-25T05:04:43;6.20;99.90
24382;DHT22;12502;50.678;7.172;2023-04-25T05:09:44;6.20;99.90
24382;DHT22;12502;50.678;7.172;2023-04-25T05:14:46;6.40;99.90
24382;DHT22;12502;50.678;7.172;2023-04-25T05:19:48;6.40;99.90
24382;DHT22;12502;50.678;7.172;2023-04-25T05:24:49;6.40;99.90
24382;DHT22;12502;50.678;7.172;2023-04-25T05:29:56;6.60;99.90
24382;DHT22;12502;50.678;7.172;2023-04-25T05:34:57;6.50;99.90
24382;DHT22;12502;50.678;7.172;2023-04-25T05:40:00;6.50;99.90
24382;DHT22;12502;50.678;7.172;2023-04-25T05:45:03;6.70;99.90
24382;DHT22;12502;50.678;7.172;2023-04-25T05:50:05;6.70;99.90
24382;DHT22;12502;50.678;7.172;2023-04-25T05:55:07;6.80;99.90
24382;DHT22;12502;50.678;7.172;2023-04-25T06:00:09;6.80;99.90
24382;DHT22;12502;50.678;7.172;2023-04-25T06:05:12;6.80;99.90
24382;DHT22;12502;50.678;7.172;2023-04-25T06:10:14;6.80;99.90
24382;DHT22;12502;50.678;7.172;2023-04-25T06:15:16;6.90;99.90
24382;DHT22;12502;50.678;7.172;2023-04-25T06:20:29;7.00;99.90
24382;DHT22;12502;50.678;7.172;2023-04-25T06:25:30;7.00;99.90
24382;DHT22;12502;50.678;7.172;2023-04-25T06:30:32;7.10;99.90
24382;DHT22;12502;50.678;7.172;2023-04-25T06:35:34;7.10;99.90
24382;DHT22;12502;50.678;7.172;2023-04-25T06:40:36;7.10;99.90
24382;DHT22;12502;50.678;7.172;2023-04-25T06:45:37;7.20;99.90
24382;DHT22;12502;50.678;7.172;2023-04-25T06:50:40;7.00;99.90
24382;DHT22;12502;50.678;7.172;2023-04-25T06:55:42;7.00;99.90
24382;DHT22;12502;50.678;7.172;2023-04-25T07:00:43;7.20;99.90
24382;DHT22;12502;50.678;7.172;2023-04-25T07:05:45;7.30;99.90
24382;DHT22;12502;50.678;7.172;2023-04-25T07:10:47;7.20;99.90
24382;DHT22;12502;50.678;7.172;2023-04-25T07:15:50;7.40;99.90
24382;DHT22;12502;50.678;7.172;2023-04-25T07:20:52;7.60;99.90
24382;DHT22;12502;50.678;7.172;2023-04-25T07:25:54;7.60;99.90
24382;DHT22;12502;50.678;7.172;2023-04-25T07:30:55;7.60;99.90
24382;DHT22;12502;50.678;7.172;2023-04-25T07:35:57;7.60;99.90
24382;DHT22;12502;50.678;7.172;2023-04-25T07:40:59;7.60;99.90
24382;DHT22;12502;50.678;7.172;2023-04-25T07:46:01;7.70;99.90
24382;DHT22;12502;50.678;7.172;2023-04-25T07:51:04;7.90;99.90
24382;DHT22;12502;50.678;7.172;2023-04-25T07:56:06;7.80;99.90
24382;DHT22;12502;50.678;7.172;2023-04-25T08:01:08;7.80;99.90
24382;DHT22;12502;50.678;7.172;2023-04-25T08:06:10;7.90;99.90
24382;DHT22;12502;50.678;7.172;2023-04-25T08:11:12;8.00;99.90
24382;DHT22;12502;50.678;7.172;2023-04-25T08:16:13;8.30;99.90
24382;DHT22;12502;50.678;7.172;2023-04-25T08:21:15;8.40;99.90
24382;DHT22;12502;50.678;7.172;2023-04-25T08:26:17;8.40;99.90
24382;DHT22;12502;50.678;7.172;2023-04-25T08:31:18;8.40;99.90
24382;DHT22;12502;50.678;7.172;2023-04-25T08:36:20;8.50;99.90
24382;DHT22;12502;50.678;7.172;2023-04-25T08:41:40;8.60;99.90
24382;DHT22;12502;50.678;7.172;2023-04-25T08:46:42;8.50;99.90
24382;DHT22;12502;50.678;7.172;2023-04-25T08:51:49;8.50;99.90
24382;DHT22;12502;50.678;7.172;2023-04-25T08:56:54;8.30;99.90
24382;DHT22;12502;50.678;7.172;2023-04-25T09:01:55;8.20;99.90
24382;DHT22;12502;50.678;7.172;2023-04-25T09:06:58;8.20;99.90
24382;DHT22;12502;50.678;7.172;2023-04-25T09:12:00;8.30;99.90
24382;DHT22;12502;50.678;7.172;2023-04-25T09:17:03;8.40;99.90
24382;DHT22;12502;50.678;7.172;2023-04-25T09:22:06;8.50;99.90
24382;DHT22;12502;50.678;7.172;2023-04-25T09:27:09;8.60;99.90
24382;DHT22;12502;50.678;7.172;2023-04-25T09:37:29;9.80;99.90
24382;DHT22;12502;50.678;7.172;2023-04-25T09:42:31;9.70;99.90
24382;DHT22;12502;50.678;7.172;2023-04-25T09:47:36;9.50;99.90
24382;DHT22;12502;50.678;7.172;2023-04-25T09:52:40;9.40;99.90
24382;DHT22;12502;50.678;7.172;2023-04-25T09:57:41;9.70;99.90
24382;DHT22;12502;50.678;7.172;2023-04-25T10:02:44;9.40;99.90
24382;DHT22;12502;50.678;7.172;2023-04-25T10:07:47;9.40;99.90
24382;DHT22;12502;50.678;7.172;2023-04-25T10:12:49;9.40;99.90
24382;DHT22;12502;50.678;7.172;2023-04-25T10:17:50;9.50;99.90
24382;DHT22;12502;50.678;7.172;2023-04-25T10:22:53;9.40;99.90
24382;DHT22;12502;50.678;7.172;2023-04-25T10:27:58;9.90;99.90
24382;DHT22;12502;50.678;7.172;2023-04-25T10:33:00;9.90;99.90
24382;DHT22;12502;50.678;7.172;2023-04-25T10:38:04;9.60;99.90
24382;DHT22;12502;50.678;7.172;2023-04-25T10:48:31;9.50;99.90
24382;DHT22;12502;50.678;7.172;2023-04-25T10:53:37;9.60;99.90
24382;DHT22;12502;50.678;7.172;2023-04-25T10:58:44;9.90;99.90
24382;DHT22;12502;50.678;7.172;2023-04-25T11:03:47;10.20;99.90
24382;DHT22;12502;50.678;7.172;2023-04-25T11:08:52;10.00;99.90
24382;DHT22;12502;50.678;7.172;2023-04-25T11:13:54;9.90;99.90
24382;DHT22;12502;50.678;7.172;2023-04-25T11:18:59;9.50;99.90
24382;DHT22;12502;50.678;7.172;2023-04-25T11:24:02;9.60;99.90
24382;DHT22;12502;50.678;7.172;2023-04-25T11:29:04;9.60;99.90
24382;DHT22;12502;50.678;7.172;2023-04-25T11:34:08;9.70;99.90
24382;DHT22;12502;50.678;7.172;2023-04-25T11:39:11;10.60;99.90
24382;DHT22;12502;50.678;7.172;2023-04-25T11:44:17;11.00;99.90
24382;DHT22;12502;50.678;7.172;2023-04-25T11:49:20;11.20;99.90
24382;DHT22;12502;50.678;7.172;2023-04-25T11:54:23;10.50;99.90
24382;DHT22;12502;50.678;7.172;2023-04-25T11:59:25;10.20;99.90
24382;DHT22;12502;50.678;7.172;2023-04-25T12:04:29;9.80;99.90
24382;DHT22;12502;50.678;7.172;2023-04-25T12:09:34;9.50;99.90
24382;DHT22;12502;50.678;7.172;2023-04-25T12:14:36;9.50;99.90
24382;DHT22;12502;50.678;7.172;2023-04-25T12:19:37;9.40;99.90
24382;DHT22;12502;50.678;7.172;2023-04-25T12:24:44;9.50;99.90
24382;DHT22;12502;50.678;7.172;2023-04-25T12:29:50;9.50;99.90
24382;DHT22;12502;50.678;7.172;2023-04-25T12:34:52;10.30;99.90
24382;DHT22;12502;50.678;7.172;2023-04-25T12:39:54;10.10;99.90
24382;DHT22;12502;50.678;7.172;2023-04-25T12:44:56;10.00;99.90
24382;DHT22;12502;50.678;7.172;2023-04-25T12:49:57;10.00;99.90
24382;DHT22;12502;50.678;7.172;2023-04-25T12:54:59;10.20;99.90
24382;DHT22;12502;50.678;7.172;2023-04-25T13:00:01;10.10;99.90
24382;DHT22;12502;50.678;7.172;2023-04-25T13:05:05;10.00;99.90
24382;DHT22;12502;50.678;7.172;2023-04-25T13:10:08;10.40;99.90
24382;DHT22;12502;50.678;7.172;2023-04-25T13:15:10;11.10;99.90
24382;DHT22;12502;50.678;7.172;2023-04-25T13:20:12;11.50;99.90
24382;DHT22;12502;50.678;7.172;2023-04-25T13:25:15;12.00;99.90
24382;DHT22;12502;50.678;7.172;2023-04-25T13:30:17;11.80;99.90
24382;DHT22;12502;50.678;7.172;2023-04-25T13:35:19;11.50;99.80
24382;DHT22;12502;50.678;7.172;2023-04-25T13:40:21;11.30;97.90
24382;DHT22;12502;50.678;7.172;2023-04-25T13:45:26;11.00;99.00
24382;DHT22;12502;50.678;7.172;2023-04-25T13:50:27;10.70;97.90
24382;DHT22;12502;50.678;7.172;2023-04-25T13:55:29;10.50;99.70
24382;DHT22;12502;50.678;7.172;2023-04-25T14:00:31;10.40;99.90
24382;DHT22;12502;50.678;7.172;2023-04-25T14:05:33;10.20;99.50
24382;DHT22;12502;50.678;7.172;2023-04-25T14:10:39;10.10;98.90
24382;DHT22;12502;50.678;7.172;2023-04-25T14:15:40;10.10;99.90
24382;DHT22;12502;50.678;7.172;2023-04-25T14:20:43;9.90;99.90
24382;DHT22;12502;50.678;7.172;2023-04-25T14:25:45;10.00;99.90
24382;DHT22;12502;50.678;7.172;2023-04-25T14:30:47;10.10;99.90
24382;DHT22;12502;50.678;7.172;2023-04-25T14:35:48;10.20;99.90
24382;DHT22;12502;50.678;7.172;2023-04-25T14:40:51;10.20;98.00
24382;DHT22;12502;50.678;7.172;2023-04-25T14:45:54;10.10;97.50
24382;DHT22;12502;50.678;7.172;2023-04-25T14:50:59;10.40;98.60
24382;DHT22;12502;50.678;7.172;2023-04-25T14:56:01;10.40;99.70
24382;DHT22;12502;50.678;7.172;2023-04-25T15:01:04;10.50;99.90
24382;DHT22;12502;50.678;7.172;2023-04-25T15:06:06;11.00;99.90
24382;DHT22;12502;50.678;7.172;2023-04-25T15:11:08;11.10;98.10
24382;DHT22;12502;50.678;7.172;2023-04-25T15:16:09;10.90;99.90
24382;DHT22;12502;50.678;7.172;2023-04-25T15:21:12;10.90;98.80
24382;DHT22;12502;50.678;7.172;2023-04-25T15:26:14;10.70;96.20
24382;DHT22;12502;50.678;7.172;2023-04-25T15:31:18;10.70;95.40
24382;DHT22;12502;50.678;7.172;2023-04-25T15:36:19;10.70;95.20
24382;DHT22;12502;50.678;7.172;2023-04-25T15:41:23;10.60;95.00
24382;DHT22;12502;50.678;7.172;2023-04-25T15:46:25;10.70;95.10
24382;DHT22;12502;50.678;7.172;2023-04-25T15:51:27;10.70;94.10
24382;DHT22;12502;50.678;7.172;2023-04-25T15:56:28;10.70;93.90
24382;DHT22;12502;50.678;7.172;2023-04-25T16:01:31;10.50;94.80
24382;DHT22;12502;50.678;7.172;2023-04-25T16:06:33;10.50;95.30
24382;DHT22;12502;50.678;7.172;2023-04-25T16:11:35;10.40;93.70
24382;DHT22;12502;50.678;7.172;2023-04-25T16:16:37;10.30;94.30
24382;DHT22;12502;50.678;7.172;2023-04-25T16:21:40;10.40;95.40
24382;DHT22;12502;50.678;7.172;2023-04-25T16:26:42;10.30;94.90
24382;DHT22;12502;50.678;7.172;2023-04-25T16:31:44;10.20;95.20
24382;DHT22;12502;50.678;7.172;2023-04-25T16:36:48;10.50;95.90
24382;DHT22;12502;50.678;7.172;2023-04-25T16:41:50;10.70;96.70
24382;DHT22;12502;50.678;7.172;2023-04-25T16:46:52;10.70;96.30
24382;DHT22;12502;50.678;7.172;2023-04-25T16:51:54;10.80;94.50
24382;DHT22;12502;50.678;7.172;2023-04-25T16:56:56;10.70;96.70
24382;DHT22;12502;50.678;7.172;2023-04-25T17:01:58;10.80;96.00
24382;DHT22;12502;50.678;7.172;2023-04-25T17:07:00;10.60;96.10
24382;DHT22;12502;50.678;7.172;2023-04-25T17:12:02;10.50;97.50
24382;DHT22;12502;50.678;7.172;2023-04-25T17:17:05;10.40;96.90
24382;DHT22;12502;50.678;7.172;2023-04-25T17:22:07;10.30;96.20
24382;DHT22;12502;50.678;7.172;2023-04-25T17:27:09;10.20;96.90
24382;DHT22;12502;50.678;7.172;2023-04-25T17:32:11;10.10;97.10
24382;DHT22;12502;50.678;7.172;2023-04-25T17:37:14;10.00;96.60
24382;DHT22;12502;50.678;7.172;2023-04-25T17:42:16;10.00;95.90
24382;DHT22;12502;50.678;7.172;2023-04-25T17:47:18;9.90;96.80
24382;DHT22;12502;50.678;7.172;2023-04-25T17:52:20;9.90;96.50
24382;DHT22;12502;50.678;7.172;2023-04-25T17:57:23;9.80;98.00
24382;DHT22;12502;50.678;7.172;2023-04-25T18:02:25;9.70;98.60
24382;DHT22;12502;50.678;7.172;2023-04-25T18:07:28;9.70;99.90
24382;DHT22;12502;50.678;7.172;2023-04-25T18:12:34;9.50;99.90
24382;DHT22;12502;50.678;7.172;2023-04-25T18:17:37;9.30;99.90
24382;DHT22;12502;50.678;7.172;2023-04-25T18:22:42;9.00;99.90
24382;DHT22;12502;50.678;7.172;2023-04-25T18:27:44;9.00;99.90
24382;DHT22;12502;50.678;7.172;2023-04-25T18:32:46;9.00;99.90
24382;DHT22;12502;50.678;7.172;2023-04-25T18:37:49;9.00;99.90
24382;DHT22;12502;50.678;7.172;2023-04-25T18:42:51;8.90;99.90
24382;DHT22;12502;50.678;7.172;2023-04-25T18:47:53;8.90;99.90
24382;DHT22;12502;50.678;7.172;2023-04-25T18:52:55;8.90;99.90
24382;DHT22;12502;50.678;7.172;2023-04-25T18:57:57;8.90;99.90
24382;DHT22;12502;50.678;7.172;2023-04-25T19:02:59;8.70;99.90
24382;DHT22;12502;50.678;7.172;2023-04-25T19:08:04;8.50;99.90
24382;DHT22;12502;50.678;7.172;2023-04-25T19:13:05;8.60;99.90
24382;DHT22;12502;50.678;7.172;2023-04-25T19:18:08;8.60;99.90
24382;DHT22;12502;50.678;7.172;2023-04-25T19:23:09;8.60;99.90
24382;DHT22;12502;50.678;7.172;2023-04-25T19:28:11;8.50;99.90
24382;DHT22;12502;50.678;7.172;2023-04-25T19:33:14;8.30;99.90
24382;DHT22;12502;50.678;7.172;2023-04-25T19:38:16;8.30;99.90
24382;DHT22;12502;50.678;7.172;2023-04-25T19:43:18;8.10;99.90
24382;DHT22;12502;50.678;7.172;2023-04-25T19:48:19;8.10;99.90
24382;DHT22;12502;50.678;7.172;2023-04-25T19:53:21;7.90;99.90
24382;DHT22;12502;50.678;7.172;2023-04-25T19:58:23;7.70;99.90
24382;DHT22;12502;50.678;7.172;2023-04-25T20:03:25;7.70;99.90
24382;DHT22;12502;50.678;7.172;2023-04-25T20:08:28;7.50;99.90
24382;DHT22;12502;50.678;7.172;2023-04-25T20:13:31;7.40;99.90
24382;DHT22;12502;50.678;7.172;2023-04-25T20:18:32;7.30;99.90
24382;DHT22;12502;50.678;7.172;2023-04-25T20:23:34;7.30;99.90
24382;DHT22;12502;50.678;7.172;2023-04-25T20:28:36;7.20;99.90
24382;DHT22;12502;50.678;7.172;2023-04-25T20:33:38;7.20;99.90
24382;DHT22;12502;50.678;7.172;2023-04-25T20:38:41;7.00;99.90
24382;DHT22;12502;50.678;7.172;2023-04-25T20:43:42;7.10;99.90
24382;DHT22;12502;50.678;7.172;2023-04-25T20:48:44;7.10;99.90
24382;DHT22;12502;50.678;7.172;2023-04-25T20:53:46;6.90;99.90
24382;DHT22;12502;50.678;7.172;2023-04-25T20:58:48;6.90;99.90
24382;DHT22;12502;50.678;7.172;2023-04-25T21:03:51;6.90;99.90
24382;DHT22;12502;50.678;7.172;2023-04-25T21:08:53;6.80;99.90
24382;DHT22;12502;50.678;7.172;2023-04-25T21:13:55;6.80;99.90
24382;DHT22;12502;50.678;7.172;2023-04-25T21:18:57;6.80;99.90
24382;DHT22;12502;50.678;7.172;2023-04-25T21:24:00;6.90;99.90
24382;DHT22;12502;50.678;7.172;2023-04-25T21:29:01;6.90;99.90
24382;DHT22;12502;50.678;7.172;2023-04-25T21:34:04;7.00;99.90
24382;DHT22;12502;50.678;7.172;2023-04-25T21:39:07;7.00;99.90
24382;DHT22;12502;50.678;7.172;2023-04-25T21:44:11;7.00;99.90
24382;DHT22;12502;50.678;7.172;2023-04-25T21:49:17;7.00;99.90
24382;DHT22;12502;50.678;7.172;2023-04-25T21:54:21;7.10;99.90
24382;DHT22;12502;50.678;7.172;2023-04-25T21:59:23;7.00;99.90
24382;DHT22;12502;50.678;7.172;2023-04-25T22:04:25;6.80;99.90
24382;DHT22;12502;50.678;7.172;2023-04-25T22:09:27;7.00;99.90
24382;DHT22;12502;50.678;7.172;2023-04-25T22:14:31;7.10;99.90
24382;DHT22;12502;50.678;7.172;2023-04-25T22:19:32;7.00;99.90
24382;DHT22;12502;50.678;7.172;2023-04-25T22:24:34;7.00;99.90
24382;DHT22;12502;50.678;7.172;2023-04-25T22:29:36;7.00;99.90
24382;DHT22;12502;50.678;7.172;2023-04-25T22:34:38;6.90;99.90
24382;DHT22;12502;50.678;7.172;2023-04-25T22:39:39;7.00;99.90
24382;DHT22;12502;50.678;7.172;2023-04-25T22:44:41;6.90;99.90
24382;DHT22;12502;50.678;7.172;2023-04-25T22:49:43;6.90;99.90
24382;DHT22;12502;50.678;7.172;2023-04-25T22:54:45;6.80;99.90
24382;DHT22;12502;50.678;7.172;2023-04-25T22:59:47;6.80;99.90
24382;DHT22;12502;50.678;7.172;2023-04-25T23:04:49;6.90;99.90
24382;DHT22;12502;50.678;7.172;2023-04-25T23:09:51;6.60;99.90
24382;DHT22;12502;50.678;7.172;2023-04-25T23:14:52;6.60;99.90
24382;DHT22;12502;50.678;7.172;2023-04-25T23:19:54;6.40;99.90
24382;DHT22;12502;50.678;7.172;2023-04-25T23:24:57;6.60;99.90
24382;DHT22;12502;50.678;7.172;2023-04-25T23:29:59;6.40;99.90
24382;DHT22;12502;50.678;7.172;2023-04-25T23:35:02;7.10;99.90
24382;DHT22;12502;50.678;7.172;2023-04-25T23:40:05;6.20;99.90
24382;DHT22;12502;50.678;7.172;2023-04-25T23:45:10;6.00;99.90
24382;DHT22;12502;50.678;7.172;2023-04-25T23:50:11;5.80;99.90
24382;DHT22;12502;50.678;7.172;2023-04-25T23:55:13;5.80;99.90
